Time;durP1;ratioP1;P1;durP2;ratioP2;P2;SDS_P1;SDS_P2;PMS_P1;PMS_P2;Temp;Humidity;BMP_temperature;BMP_pressure;BME280_temperature;BME280_humidity;BME280_pressure;Samples;Min_cycle;Max_cycle;Signal;HPM_P1;HPM_P2
2021/01/24 00:02:23;;;;;;;8.05;6.80;;;6.80;79.50;;;;;;4921825;29;20043;-76
2021/01/24 00:04:49;;;;;;;9.43;6.80;;;6.80;79.50;;;;;;4954351;28;20437;-78
2021/01/24 00:07:15;;;;;;;8.43;6.80;;;6.80;79.50;;;;;;4941094;28;20030;-78
2021/01/24 00:09:42;;;;;;;8.98;7.05;;;6.80;79.50;;;;;;4924919;28;20074;-79
2021/01/24 00:12:07;;;;;;;9.15;7.13;;;6.80;79.70;;;;;;4941228;28;20067;-78
2021/01/24 00:14:33;;;;;;;9.57;7.30;;;6.80;79.60;;;;;;4917943;28;20053;-78
2021/01/24 00:16:59;;;;;;;8.75;6.38;;;6.80;79.60;;;;;;4943351;28;20038;-79
2021/01/24 00:19:25;;;;;;;8.50;6.45;;;6.80;79.60;;;;;;4911022;28;20480;-77
2021/01/24 00:21:50;;;;;;;8.52;6.65;;;6.80;79.60;;;;;;4925945;28;20031;-78
2021/01/24 00:24:16;;;;;;;8.20;6.38;;;6.80;79.60;;;;;;4966611;28;20651;-78
2021/01/24 00:26:42;;;;;;;10.68;7.55;;;6.80;79.60;;;;;;4922723;29;20066;-77
2021/01/24 00:29:08;;;;;;;10.02;7.95;;;6.80;79.60;;;;;;4928766;28;20483;-77
2021/01/24 00:31:34;;;;;;;9.75;7.80;;;6.80;79.60;;;;;;4911555;28;20031;-78
2021/01/24 00:34:00;;;;;;;11.10;8.20;;;6.80;79.60;;;;;;4963809;28;20022;-78
2021/01/24 00:36:26;;;;;;;10.10;7.25;;;6.80;79.60;;;;;;4940488;28;20054;-77
2021/01/24 00:38:51;;;;;;;10.65;7.93;;;6.80;79.60;;;;;;4943194;28;20450;-78
2021/01/24 00:41:17;;;;;;;9.65;7.28;;;6.70;79.50;;;;;;4956955;28;20166;-77
2021/01/24 00:43:43;;;;;;;9.82;7.55;;;6.80;79.60;;;;;;4944236;28;20074;-78
2021/01/24 00:46:09;;;;;;;10.50;8.15;;;6.70;79.60;;;;;;4928165;28;20071;-78
2021/01/24 00:48:37;;;;;;;10.38;7.68;;;6.70;79.60;;;;;;4956563;28;20042;-78
2021/01/24 00:51:05;;;;;;;9.15;7.25;;;6.70;79.60;;;;;;4963134;28;20026;-78
2021/01/24 00:53:31;;;;;;;9.98;7.53;;;6.70;79.60;;;;;;4945068;28;20028;-78
2021/01/24 00:55:56;;;;;;;9.55;7.63;;;6.70;79.70;;;;;;4960463;28;20391;-78
2021/01/24 00:58:23;;;;;;;10.40;7.68;;;6.70;79.70;;;;;;4925491;28;20521;-79
2021/01/24 01:00:49;;;;;;;11.52;8.10;;;6.70;79.60;;;;;;4958635;28;20034;-78
2021/01/24 01:03:15;;;;;;;10.13;7.18;;;6.70;79.60;;;;;;4956069;28;20027;-79
2021/01/24 01:05:41;;;;;;;9.00;7.35;;;6.70;79.60;;;;;;4961420;28;20034;-78
2021/01/24 01:08:07;;;;;;;8.85;6.63;;;6.70;79.60;;;;;;4954039;28;20022;-79
2021/01/24 01:10:34;;;;;;;9.25;6.70;;;6.70;79.60;;;;;;4956903;28;20048;-78
2021/01/24 01:13:00;;;;;;;8.82;7.07;;;6.70;79.70;;;;;;4928651;28;20061;-78
2021/01/24 01:15:26;;;;;;;7.93;6.72;;;6.70;79.60;;;;;;4947758;28;20093;-79
2021/01/24 01:17:52;;;;;;;8.88;6.90;;;6.70;79.60;;;;;;4939567;28;20043;-79
2021/01/24 01:20:18;;;;;;;9.55;6.53;;;6.70;79.70;;;;;;4926216;28;20451;-78
2021/01/24 01:22:44;;;;;;;8.48;6.55;;;6.70;79.70;;;;;;4949860;28;20033;-78
2021/01/24 01:25:10;;;;;;;8.27;6.65;;;6.70;79.70;;;;;;4924308;28;20822;-78
2021/01/24 01:27:37;;;;;;;9.63;6.78;;;6.70;79.70;;;;;;4941672;28;20038;-78
2021/01/24 01:30:05;;;;;;;9.40;6.95;;;6.70;79.70;;;;;;4940186;29;20019;-78
2021/01/24 01:32:30;;;;;;;8.52;6.43;;;6.60;79.70;;;;;;4936152;28;20027;-77
2021/01/24 01:34:56;;;;;;;8.82;6.90;;;6.60;79.60;;;;;;4936692;29;20030;-78
2021/01/24 01:37:22;;;;;;;8.75;6.15;;;6.60;79.70;;;;;;4916912;28;20035;-78
2021/01/24 01:39:48;;;;;;;8.68;6.43;;;6.60;79.70;;;;;;4924435;28;20026;-77
2021/01/24 01:42:14;;;;;;;8.68;6.70;;;6.60;79.70;;;;;;4939912;28;20031;-77
2021/01/24 01:44:44;;;;;;;9.35;6.53;;;6.60;79.70;;;;;;4942193;28;20030;-77
2021/01/24 01:47:13;;;;;;;8.07;6.53;;;6.60;79.70;;;;;;4959005;28;20475;-78
2021/01/24 01:49:39;;;;;;;7.75;5.90;;;6.60;79.70;;;;;;4925476;28;20121;-79
2021/01/24 01:52:04;;;;;;;8.35;6.32;;;6.60;79.60;;;;;;4933208;28;20023;-78
2021/01/24 01:54:30;;;;;;;9.25;5.65;;;6.60;79.60;;;;;;4936932;29;20086;-77
2021/01/24 01:56:57;;;;;;;7.72;5.95;;;6.60;79.60;;;;;;4941715;28;20046;-77
2021/01/24 01:59:23;;;;;;;8.80;5.70;;;6.60;79.70;;;;;;4943836;28;20035;-77
2021/01/24 02:01:54;;;;;;;7.35;5.45;;;6.50;79.60;;;;;;4956137;28;20027;-77
2021/01/24 02:04:42;;;;;;;7.75;5.18;;;6.60;79.70;;;;;;4955713;28;20042;-77
2021/01/24 02:07:25;;;;;;;8.73;5.72;;;6.60;79.70;;;;;;4949037;29;20039;-77
2021/01/24 02:09:57;;;;;;;6.97;5.18;;;6.50;79.70;;;;;;4936626;28;20047;-77
2021/01/24 02:12:38;;;;;;;7.45;4.97;;;6.50;79.60;;;;;;4927775;28;20035;-77
2021/01/24 02:15:11;;;;;;;7.85;5.38;;;6.50;79.70;;;;;;4942615;28;20034;-79
2021/01/24 02:17:40;;;;;;;6.13;4.65;;;6.50;79.60;;;;;;4944155;28;20506;-78
2021/01/24 02:20:13;;;;;;;7.03;5.20;;;6.50;79.60;;;;;;4958573;28;20113;-79
2021/01/24 02:22:40;;;;;;;6.57;4.38;;;6.50;79.70;;;;;;4963007;28;20039;-78
2021/01/24 02:25:24;;;;;;;6.80;4.72;;;6.50;79.70;;;;;;4933572;28;20053;-77
2021/01/24 02:28:15;;;;;;;6.45;4.65;;;6.50;79.70;;;;;;4980824;28;20051;-78
2021/01/24 02:30:42;;;;;;;5.80;4.53;;;6.50;79.70;;;;;;4958569;28;20482;-77
2021/01/24 02:33:11;;;;;;;6.35;4.82;;;6.50;80.30;;;;;;4925606;29;20027;-78
2021/01/24 02:35:41;;;;;;;6.22;4.35;;;6.50;79.70;;;;;;4943628;28;20030;-77
2021/01/24 02:38:09;;;;;;;6.03;4.43;;;6.50;79.70;;;;;;4971518;28;20131;-77
2021/01/24 02:40:37;;;;;;;5.97;4.65;;;6.40;79.70;;;;;;4958695;28;20387;-78
2021/01/24 02:43:06;;;;;;;6.55;4.35;;;6.40;79.70;;;;;;4961145;28;20118;-77
2021/01/24 02:45:33;;;;;;;6.13;4.47;;;6.40;79.70;;;;;;4958755;28;20030;-77
2021/01/24 02:48:00;;;;;;;6.05;4.38;;;6.40;79.70;;;;;;4958733;28;20038;-78
2021/01/24 02:50:30;;;;;;;6.60;4.20;;;6.40;79.70;;;;;;4958780;28;20061;-77
2021/01/24 02:53:00;;;;;;;6.32;4.28;;;6.40;79.70;;;;;;4943182;28;20031;-78
2021/01/24 02:55:27;;;;;;;6.00;4.38;;;6.40;80.40;;;;;;4946211;28;20480;-77
2021/01/24 02:57:53;;;;;;;6.38;4.22;;;6.40;79.70;;;;;;4953073;28;20022;-78
2021/01/24 03:00:20;;;;;;;5.43;3.90;;;6.40;79.70;;;;;;4945677;28;20046;-77
2021/01/24 03:02:46;;;;;;;4.68;3.45;;;6.40;79.70;;;;;;4944091;28;20027;-77
2021/01/24 03:05:12;;;;;;;5.65;4.00;;;6.40;79.80;;;;;;4958208;28;20030;-77
2021/01/24 03:07:39;;;;;;;5.50;3.67;;;6.40;79.70;;;;;;4910976;28;20034;-77
2021/01/24 03:10:05;;;;;;;4.78;3.25;;;6.40;79.70;;;;;;4945476;28;20202;-78
2021/01/24 03:12:35;;;;;;;5.72;3.88;;;6.40;79.70;;;;;;4958277;28;20090;-77
2021/01/24 03:15:04;;;;;;;5.28;3.42;;;6.30;79.70;;;;;;4940771;28;20078;-78
2021/01/24 03:17:31;;;;;;;6.43;4.15;;;6.30;79.70;;;;;;4940731;28;20030;-77
2021/01/24 03:19:59;;;;;;;5.28;3.83;;;6.30;79.70;;;;;;4958618;28;20032;-77
2021/01/24 03:22:26;;;;;;;5.55;3.97;;;6.30;79.70;;;;;;4942329;28;20022;-77
2021/01/24 03:24:53;;;;;;;5.35;3.55;;;6.30;79.70;;;;;;4942299;28;20019;-78
2021/01/24 03:27:19;;;;;;;7.25;4.47;;;6.30;79.70;;;;;;4956992;28;20047;-76
2021/01/24 03:29:45;;;;;;;4.75;3.30;;;6.40;79.80;;;;;;4931056;29;20035;-77
2021/01/24 03:32:11;;;;;;;4.45;3.20;;;6.30;79.70;;;;;;4962644;28;20038;-77
2021/01/24 03:34:37;;;;;;;5.65;3.92;;;6.30;79.70;;;;;;4925624;28;20047;-78
2021/01/24 03:37:03;;;;;;;4.82;3.50;;;6.30;79.70;;;;;;4940928;28;20093;-78
2021/01/24 03:39:28;;;;;;;5.30;3.65;;;6.30;79.70;;;;;;4942835;28;20053;-77
2021/01/24 03:41:54;;;;;;;6.43;3.67;;;6.30;79.70;;;;;;4947033;28;20038;-78
2021/01/24 03:44:20;;;;;;;4.93;3.25;;;6.30;79.70;;;;;;4929891;28;20097;-77
2021/01/24 03:46:45;;;;;;;5.22;3.65;;;6.30;79.70;;;;;;4943799;28;20073;-77
2021/01/24 03:49:11;;;;;;;4.45;3.25;;;6.30;79.80;;;;;;4941426;28;20035;-77
2021/01/24 03:51:37;;;;;;;5.55;3.80;;;6.30;79.80;;;;;;4929646;28;20366;-78
2021/01/24 03:54:03;;;;;;;6.20;3.70;;;6.30;79.80;;;;;;4985563;28;20054;-79
2021/01/24 03:56:29;;;;;;;5.32;3.78;;;6.30;79.80;;;;;;4941445;28;20505;-77
2021/01/24 03:58:54;;;;;;;5.65;3.72;;;6.30;79.80;;;;;;4926286;28;20122;-77
2021/01/24 04:01:20;;;;;;;5.25;3.67;;;6.30;79.80;;;;;;4927340;28;20093;-77
2021/01/24 04:03:46;;;;;;;5.65;3.78;;;6.20;79.70;;;;;;4964923;28;20030;-77
2021/01/24 04:06:12;;;;;;;5.20;3.70;;;6.20;79.70;;;;;;4958517;28;20035;-78
2021/01/24 04:08:38;;;;;;;5.05;3.80;;;6.30;79.80;;;;;;4926067;28;20432;-78
2021/01/24 04:11:03;;;;;;;4.95;3.50;;;6.20;79.70;;;;;;4927150;28;20154;-79
2021/01/24 04:13:29;;;;;;;5.20;3.63;;;6.20;79.80;;;;;;4962374;28;20035;-77
2021/01/24 04:15:55;;;;;;;6.13;4.18;;;6.20;79.70;;;;;;4938645;28;20031;-77
2021/01/24 04:18:21;;;;;;;6.10;3.92;;;6.20;79.80;;;;;;4941702;28;20462;-77
2021/01/24 04:20:47;;;;;;;5.88;3.92;;;6.20;79.80;;;;;;4956116;28;20419;-77
2021/01/24 04:23:12;;;;;;;4.93;3.50;;;6.20;79.70;;;;;;4941047;28;20039;-79
2021/01/24 04:25:39;;;;;;;5.45;3.83;;;6.20;79.70;;;;;;4925122;28;20115;-77
2021/01/24 04:28:05;;;;;;;5.85;3.70;;;6.20;79.80;;;;;;4956546;28;20019;-77
2021/01/24 04:30:30;;;;;;;5.35;4.15;;;6.20;79.80;;;;;;4925277;28;20364;-78
2021/01/24 04:32:56;;;;;;;5.60;4.10;;;6.20;79.80;;;;;;4925931;28;20031;-79
2021/01/24 04:35:22;;;;;;;6.47;4.07;;;6.20;79.80;;;;;;4926350;28;20031;-77
2021/01/24 04:37:48;;;;;;;6.07;3.92;;;6.20;79.80;;;;;;4930357;28;20479;-77
2021/01/24 04:40:15;;;;;;;5.18;3.65;;;6.20;79.80;;;;;;4956992;28;20023;-77
2021/01/24 04:42:42;;;;;;;6.25;4.13;;;6.20;79.80;;;;;;4943812;28;20018;-77
2021/01/24 04:45:09;;;;;;;6.57;4.10;;;6.20;79.80;;;;;;4943925;28;20380;-77
2021/01/24 04:47:38;;;;;;;6.40;4.43;;;6.20;79.80;;;;;;4946480;28;20055;-77
2021/01/24 04:50:04;;;;;;;5.65;3.90;;;6.20;79.80;;;;;;4943179;28;20061;-77
2021/01/24 04:52:31;;;;;;;6.43;4.28;;;6.20;79.80;;;;;;4946042;28;20031;-77
2021/01/24 04:54:57;;;;;;;5.60;3.95;;;6.20;79.80;;;;;;4941540;28;20035;-78
2021/01/24 04:57:23;;;;;;;5.88;4.05;;;6.10;79.80;;;;;;4942445;28;20039;-78
2021/01/24 04:59:49;;;;;;;7.25;4.60;;;6.10;79.80;;;;;;4963562;28;20086;-76
2021/01/24 05:02:15;;;;;;;6.30;4.38;;;6.10;79.80;;;;;;4945345;28;20035;-77
2021/01/24 05:04:41;;;;;;;5.45;3.92;;;6.10;79.80;;;;;;4951495;28;20037;-77
2021/01/24 05:07:07;;;;;;;6.10;4.30;;;6.10;79.80;;;;;;4952170;28;20030;-78
2021/01/24 05:09:33;;;;;;;6.15;4.07;;;6.10;79.80;;;;;;4968894;28;20439;-77
2021/01/24 05:11:59;;;;;;;6.00;4.00;;;6.10;79.80;;;;;;4952240;28;20114;-76
2021/01/24 05:14:25;;;;;;;6.90;4.43;;;6.10;79.80;;;;;;4969171;28;20177;-77
2021/01/24 05:16:53;;;;;;;5.50;3.80;;;6.10;79.80;;;;;;4941201;28;20042;-77
2021/01/24 05:19:23;;;;;;;6.07;4.10;;;6.10;79.80;;;;;;4958945;28;20038;-77
2021/01/24 05:21:51;;;;;;;6.13;4.13;;;6.10;79.80;;;;;;4965563;28;20495;-77
2021/01/24 05:24:18;;;;;;;5.97;4.57;;;6.10;79.80;;;;;;4940096;28;20027;-78
2021/01/24 05:26:49;;;;;;;6.03;4.22;;;6.10;79.80;;;;;;4960787;28;20034;-77
2021/01/24 05:29:36;;;;;;;5.93;3.97;;;6.10;79.80;;;;;;4948293;28;20031;-78
2021/01/24 05:32:03;;;;;;;6.30;4.13;;;6.10;80.00;;;;;;4960619;28;20452;-77
2021/01/24 05:34:29;;;;;;;6.15;4.07;;;6.10;79.80;;;;;;4958950;28;20443;-77
2021/01/24 05:36:57;;;;;;;6.00;4.18;;;6.10;79.90;;;;;;4945720;29;20058;-78
2021/01/24 05:39:25;;;;;;;6.88;4.47;;;6.00;79.80;;;;;;4937613;28;20054;-77
2021/01/24 05:41:53;;;;;;;5.75;3.90;;;6.10;79.80;;;;;;4940069;28;20094;-77
2021/01/24 05:44:20;;;;;;;5.57;3.85;;;6.10;79.90;;;;;;4955977;28;20031;-77
2021/01/24 05:46:46;;;;;;;5.43;3.95;;;6.10;79.90;;;;;;4976688;28;20109;-77
2021/01/24 05:49:19;;;;;;;5.93;3.85;;;6.00;79.80;;;;;;4954370;28;20058;-77
2021/01/24 05:52:00;;;;;;;6.25;4.40;;;6.00;79.80;;;;;;4957901;28;20047;-77
2021/01/24 05:54:43;;;;;;;5.63;3.95;;;6.00;79.80;;;;;;4968046;28;20027;-77
2021/01/24 05:57:13;;;;;;;5.82;3.70;;;6.00;79.90;;;;;;4937220;29;20109;-77
2021/01/24 05:59:55;;;;;;;6.15;4.10;;;6.00;79.80;;;;;;4940350;28;20046;-78
2021/01/24 06:02:23;;;;;;;5.47;3.88;;;6.00;79.90;;;;;;4957405;28;20464;-77
2021/01/24 06:04:50;;;;;;;6.97;4.18;;;6.00;79.70;;;;;;4959625;28;20419;-78
2021/01/24 06:07:17;;;;;;;6.57;3.95;;;6.00;79.80;;;;;;4929036;28;20038;-81
2021/01/24 06:09:43;;;;;;;6.22;3.85;;;6.00;79.80;;;;;;4943615;28;20539;-77
2021/01/24 06:12:10;;;;;;;5.47;3.60;;;6.00;79.80;;;;;;4947138;28;20479;-77
2021/01/24 06:14:38;;;;;;;6.00;4.13;;;6.00;79.80;;;;;;4968805;28;20118;-77
2021/01/24 06:17:11;;;;;;;5.90;3.55;;;6.00;79.80;;;;;;4956194;28;20022;-77
2021/01/24 06:19:46;;;;;;;5.20;3.60;;;6.00;80.40;;;;;;4995553;28;20023;-79
2021/01/24 06:22:13;;;;;;;;;;;5.90;79.80;;;;;;4958725;28;20459;-78
2021/01/24 06:24:46;;;;;;;5.93;3.72;;;6.00;79.70;;;;;;4960142;28;19914;-77
2021/01/24 06:27:19;;;;;;;5.32;3.92;;;5.90;79.60;;;;;;4945218;28;20034;-77
2021/01/24 06:29:49;;;;;;;5.35;3.75;;;5.90;79.70;;;;;;4977171;28;20467;-77
2021/01/24 06:32:29;;;;;;;5.43;3.60;;;5.90;79.80;;;;;;4968426;28;20026;-78
2021/01/24 06:35:13;;;;;;;5.40;3.70;;;5.90;80.50;;;;;;4976156;28;20026;-77
2021/01/24 06:37:53;;;;;;;4.65;3.10;;;5.90;79.80;;;;;;4958588;28;20066;-78
2021/01/24 06:40:24;;;;;;;4.88;3.50;;;5.90;79.90;;;;;;4968776;28;20027;-78
2021/01/24 06:43:03;;;;;;;5.30;3.78;;;5.90;79.90;;;;;;4947993;28;20019;-77
2021/01/24 06:45:29;;;;;;;4.85;3.20;;;5.90;79.90;;;;;;4939631;29;20546;-77
2021/01/24 06:47:57;;;;;;;5.25;3.55;;;5.80;79.70;;;;;;4974343;28;20030;-77
2021/01/24 06:50:46;;;;;;;5.35;3.47;;;5.90;79.90;;;;;;4958662;28;20038;-79
2021/01/24 06:53:18;;;;;;;5.18;3.35;;;5.90;79.90;;;;;;4974446;28;20082;-77
2021/01/24 06:55:58;;;;;;;4.53;3.03;;;5.90;79.80;;;;;;4943786;28;20061;-78
2021/01/24 06:58:29;;;;;;;4.43;3.13;;;5.90;79.90;;;;;;4950252;28;20035;-78
2021/01/24 07:01:23;;;;;;;5.85;3.90;;;5.80;79.80;;;;;;4958030;28;20114;-78
2021/01/24 07:04:20;;;;;;;4.72;3.08;;;5.80;79.90;;;;;;4951925;28;20038;-79
2021/01/24 07:06:50;;;;;;;4.90;3.35;;;5.80;79.90;;;;;;4967497;28;20037;-77
2021/01/24 07:09:27;;;;;;;5.43;3.38;;;5.80;79.70;;;;;;4950944;28;20034;-77
2021/01/24 07:12:05;;;;;;;4.55;3.05;;;5.80;79.90;;;;;;4950175;28;20041;-77
2021/01/24 07:14:36;;;;;;;5.20;3.35;;;5.80;79.90;;;;;;4967068;28;20097;-78
2021/01/24 07:17:07;;;;;;;4.10;2.85;;;5.80;79.90;;;;;;4943337;28;20061;-77
2021/01/24 07:19:37;;;;;;;3.65;2.83;;;5.80;79.90;;;;;;4959609;28;20031;-78
2021/01/24 07:22:04;;;;;;;5.22;3.30;;;5.80;79.90;;;;;;4945861;28;20027;-79
2021/01/24 07:24:30;;;;;;;5.20;3.38;;;5.80;79.80;;;;;;4951280;28;20030;-79
2021/01/24 07:26:57;;;;;;;4.53;3.17;;;5.80;79.90;;;;;;4974947;28;20549;-77
2021/01/24 07:29:23;;;;;;;5.05;3.25;;;5.80;79.80;;;;;;4930469;28;20479;-82
2021/01/24 07:31:49;;;;;;;5.68;3.00;;;5.80;79.80;;;;;;4950793;28;20085;-77
2021/01/24 07:34:20;;;;;;;5.35;3.17;;;5.80;79.80;;;;;;4944171;28;20045;-78
2021/01/24 07:36:50;;;;;;;4.82;3.10;;;5.80;79.90;;;;;;4952601;28;20030;-77
2021/01/24 07:39:17;;;;;;;4.75;3.17;;;5.80;79.80;;;;;;4944235;28;20090;-78
2021/01/24 07:41:44;;;;;;;5.03;2.90;;;5.80;79.90;;;;;;4960001;28;20023;-78
2021/01/24 07:44:10;;;;;;;5.40;3.58;;;5.80;79.80;;;;;;4951159;28;20027;-77
2021/01/24 07:46:36;;;;;;;4.68;3.10;;;5.80;79.90;;;;;;4943102;28;20023;-77
2021/01/24 07:49:03;;;;;;;5.43;3.35;;;5.80;79.80;;;;;;4957697;28;20022;-77
2021/01/24 07:51:28;;;;;;;4.35;3.13;;;5.80;80.40;;;;;;4962800;28;20050;-79
2021/01/24 07:53:54;;;;;;;4.20;2.80;;;5.80;79.80;;;;;;4984173;28;20062;-78
2021/01/24 07:56:20;;;;;;;3.97;2.80;;;5.80;79.90;;;;;;4957489;28;20044;-78
2021/01/24 07:58:47;;;;;;;4.05;2.92;;;5.70;79.80;;;;;;4942031;28;20039;-78
2021/01/24 08:01:14;;;;;;;4.40;3.00;;;5.80;79.90;;;;;;4969426;28;20041;-77
2021/01/24 08:03:41;;;;;;;4.40;3.13;;;5.70;79.80;;;;;;4952672;28;20113;-79
2021/01/24 08:06:08;;;;;;;5.03;3.40;;;5.80;79.90;;;;;;4973313;28;20459;-78
2021/01/24 08:08:36;;;;;;;5.45;3.40;;;5.70;79.80;;;;;;4964088;28;20486;-78
2021/01/24 08:11:03;;;;;;;4.13;3.05;;;5.70;79.80;;;;;;4927269;29;20052;-79
2021/01/24 08:13:29;;;;;;;4.47;3.08;;;5.70;79.90;;;;;;4943300;29;20443;-79
2021/01/24 08:15:57;;;;;;;4.80;3.13;;;5.70;80.00;;;;;;4939826;29;20038;-79
2021/01/24 08:18:25;;;;;;;4.55;3.03;;;5.70;79.90;;;;;;4932944;29;20292;-77
2021/01/24 08:20:51;;;;;;;4.75;2.78;;;5.70;79.90;;;;;;4922705;29;20031;-77
2021/01/24 08:23:16;;;;;;;4.32;2.92;;;5.70;79.80;;;;;;4919095;29;20473;-76
2021/01/24 08:25:44;;;;;;;4.82;3.35;;;5.70;79.80;;;;;;4919233;29;20031;-77
2021/01/24 08:28:10;;;;;;;4.45;3.22;;;5.70;79.80;;;;;;4919152;29;20032;-76
2021/01/24 08:30:40;;;;;;;4.38;3.03;;;5.70;79.80;;;;;;4933588;29;20061;-78
2021/01/24 08:33:11;;;;;;;5.20;3.25;;;5.70;79.80;;;;;;4905876;29;20023;-78
2021/01/24 08:35:36;;;;;;;5.25;3.90;;;5.70;79.80;;;;;;4934317;29;20028;-77
2021/01/24 08:38:02;;;;;;;4.45;3.20;;;5.70;79.80;;;;;;4905813;29;20044;-77
2021/01/24 08:40:32;;;;;;;4.30;3.10;;;5.70;79.80;;;;;;4918802;29;20047;-77
2021/01/24 08:42:59;;;;;;;4.53;2.88;;;5.70;79.90;;;;;;4903072;29;20118;-77
2021/01/24 08:45:27;;;;;;;3.88;2.67;;;5.60;79.80;;;;;;4935584;29;20036;-77
2021/01/24 08:48:01;;;;;;;5.20;3.03;;;5.60;79.80;;;;;;4903458;29;20047;-78
2021/01/24 08:50:34;;;;;;;4.33;3.03;;;5.60;80.00;;;;;;4916275;29;20123;-77
2021/01/24 08:53:03;;;;;;;4.20;2.80;;;5.70;79.90;;;;;;4933201;29;20034;-77
2021/01/24 08:55:29;;;;;;;3.97;2.65;;;5.60;79.70;;;;;;4932440;29;20031;-77
2021/01/24 08:57:55;;;;;;;3.45;2.50;;;5.60;79.80;;;;;;4917924;29;20065;-77
2021/01/24 09:00:23;;;;;;;3.47;2.53;;;5.60;79.80;;;;;;4933196;29;20024;-77
2021/01/24 09:02:49;;;;;;;3.65;2.47;;;5.60;79.80;;;;;;4917172;29;20042;-77
2021/01/24 09:05:36;;;;;;;3.45;2.58;;;5.60;79.80;;;;;;4902514;29;20020;-77
2021/01/24 09:08:02;;;;;;;3.85;2.78;;;5.60;79.90;;;;;;4925451;29;20107;-78
2021/01/24 09:10:34;;;;;;;3.67;2.65;;;5.60;79.70;;;;;;4917900;29;20131;-77
2021/01/24 09:13:04;;;;;;;3.22;2.47;;;5.60;79.90;;;;;;4915387;29;20036;-78
2021/01/24 09:15:32;;;;;;;3.90;2.50;;;5.60;79.80;;;;;;4933124;29;20036;-77
2021/01/24 09:17:59;;;;;;;3.45;2.42;;;5.60;79.80;;;;;;4932486;29;20066;-76
2021/01/24 09:20:26;;;;;;;4.47;2.50;;;5.60;79.80;;;;;;4944414;29;20039;-78
2021/01/24 09:22:52;;;;;;;2.97;2.40;;;5.60;79.80;;;;;;4906465;28;20031;-77
2021/01/24 09:25:19;;;;;;;2.70;2.20;;;5.60;79.80;;;;;;4940031;28;20035;-77
2021/01/24 09:27:45;;;;;;;2.80;2.30;;;5.60;79.80;;;;;;4920462;29;20027;-77
2021/01/24 09:30:13;;;;;;;2.95;2.30;;;5.60;79.80;;;;;;4902157;29;20059;-78
2021/01/24 09:32:40;;;;;;;2.67;2.15;;;5.60;79.80;;;;;;4939096;29;20031;-78
2021/01/24 09:35:07;;;;;;;2.33;2.10;;;5.60;79.80;;;;;;4941586;29;20023;-76
2021/01/24 09:37:33;;;;;;;3.72;2.40;;;5.60;79.80;;;;;;4920367;29;20030;-76
2021/01/24 09:39:59;;;;;;;3.30;2.42;;;5.60;79.90;;;;;;4917624;29;20039;-78
2021/01/24 09:42:25;;;;;;;3.53;2.33;;;5.60;79.90;;;;;;4933440;29;20032;-77
2021/01/24 09:44:51;;;;;;;3.40;2.10;;;5.60;79.90;;;;;;4917149;29;20473;-77
2021/01/24 09:47:17;;;;;;;2.47;2.05;;;5.60;79.90;;;;;;4919346;29;20501;-77
2021/01/24 09:49:43;;;;;;;2.92;2.15;;;5.60;79.90;;;;;;4928831;29;20430;-77
2021/01/24 09:52:08;;;;;;;2.38;1.90;;;5.60;79.90;;;;;;4940455;29;20106;-77
2021/01/24 09:54:34;;;;;;;2.88;2.03;;;5.60;79.90;;;;;;4942822;29;20122;-78
2021/01/24 09:57:00;;;;;;;2.10;1.80;;;5.60;79.90;;;;;;4917425;29;20479;-78
2021/01/24 09:59:26;;;;;;;3.15;2.05;;;5.60;79.90;;;;;;4918865;29;20039;-77
2021/01/24 10:01:51;;;;;;;1.92;1.77;;;5.60;79.90;;;;;;4933680;29;20032;-77
2021/01/24 10:04:17;;;;;;;2.33;2.10;;;5.60;79.90;;;;;;4917625;29;20154;-77
2021/01/24 10:06:43;;;;;;;3.03;2.08;;;5.60;79.90;;;;;;4932992;29;20111;-77
2021/01/24 10:09:09;;;;;;;2.50;2.17;;;5.60;79.90;;;;;;4902270;28;20043;-79
2021/01/24 10:11:35;;;;;;;3.25;2.10;;;5.60;79.90;;;;;;4940112;28;20455;-77
2021/01/24 10:14:02;;;;;;;3.08;2.05;;;5.60;79.90;;;;;;4948063;29;20035;-78
2021/01/24 10:16:29;;;;;;;2.03;1.83;;;5.60;79.90;;;;;;4948718;28;20035;-77
2021/01/24 10:18:56;;;;;;;3.13;2.10;;;5.60;79.90;;;;;;4939557;28;20365;-77
2021/01/24 10:21:22;;;;;;;1.95;1.80;;;5.70;80.00;;;;;;4956113;28;20383;-79
2021/01/24 10:23:47;;;;;;;2.40;2.20;;;5.70;80.00;;;;;;4964879;28;20117;-78
2021/01/24 10:26:14;;;;;;;1.70;1.60;;;5.70;80.00;;;;;;4918574;28;20114;-78
2021/01/24 10:28:40;;;;;;;1.90;1.70;;;5.70;80.00;;;;;;4938621;28;20059;-77
2021/01/24 10:31:07;;;;;;;2.88;2.05;;;5.70;80.00;;;;;;4972287;28;20023;-78
2021/01/24 10:33:33;;;;;;;1.88;1.60;;;5.70;80.00;;;;;;4939633;28;20045;-78
2021/01/24 10:35:59;;;;;;;2.50;1.95;;;5.70;80.10;;;;;;4923452;28;20038;-78
2021/01/24 10:38:25;;;;;;;2.40;2.00;;;5.70;80.10;;;;;;4958584;28;20090;-78
2021/01/24 10:40:51;;;;;;;3.10;2.35;;;5.70;80.10;;;;;;4958893;28;20137;-78
2021/01/24 10:43:17;;;;;;;2.35;2.15;;;5.80;80.20;;;;;;4953844;28;20122;-79
2021/01/24 10:45:44;;;;;;;2.45;1.73;;;5.80;80.70;;;;;;4943211;28;20467;-82
2021/01/24 10:48:10;;;;;;;2.20;1.80;;;5.70;80.10;;;;;;4946867;28;20023;-82
2021/01/24 10:50:37;;;;;;;1.98;1.70;;;5.80;80.20;;;;;;4970133;28;20023;-81
2021/01/24 10:53:04;;;;;;;2.42;1.50;;;5.80;80.20;;;;;;4959212;28;20033;-81
2021/01/24 10:55:30;;;;;;;2.42;1.90;;;5.80;80.20;;;;;;4956903;28;20476;-81
2021/01/24 10:57:56;;;;;;;2.67;1.83;;;5.80;80.20;;;;;;4967686;28;20105;-80
2021/01/24 11:00:22;;;;;;;2.00;1.80;;;5.80;80.20;;;;;;4926897;28;20051;-81
2021/01/24 11:02:48;;;;;;;2.10;1.70;;;5.80;80.20;;;;;;4942954;28;20026;-80
2021/01/24 11:05:14;;;;;;;1.77;1.67;;;5.80;80.20;;;;;;4951471;28;20023;-82
2021/01/24 11:07:39;;;;;;;1.95;1.67;;;5.80;80.20;;;;;;4942800;28;20027;-81
2021/01/24 11:10:09;;;;;;;1.92;1.70;;;5.90;80.30;;;;;;4951578;28;20078;-83
2021/01/24 11:12:36;;;;;;;1.70;1.55;;;5.90;80.30;;;;;;4943589;28;20455;-82
2021/01/24 11:15:02;;;;;;;1.75;1.55;;;5.90;80.20;;;;;;4977813;28;20038;-82
2021/01/24 11:17:28;;;;;;;1.70;1.60;;;5.90;80.30;;;;;;4960993;28;20041;-82
2021/01/24 11:19:54;;;;;;;1.73;1.63;;;5.90;80.20;;;;;;4942762;28;20035;-82
2021/01/24 11:22:20;;;;;;;2.38;1.63;;;5.90;80.20;;;;;;4944663;28;20518;-84
2021/01/24 11:24:46;;;;;;;2.00;1.80;;;5.90;80.30;;;;;;4946508;28;20039;-83
2021/01/24 11:27:13;;;;;;;2.85;1.67;;;6.00;80.30;;;;;;4951067;28;20042;-82
2021/01/24 11:29:40;;;;;;;1.95;1.50;;;5.90;80.20;;;;;;4927014;28;20126;-81
2021/01/24 11:32:06;;;;;;;1.50;1.40;;;5.90;80.20;;;;;;4942240;28;20042;-82
2021/01/24 11:34:32;;;;;;;2.35;1.45;;;6.00;80.30;;;;;;4987233;28;20097;-81
2021/01/24 11:36:58;;;;;;;1.50;1.40;;;6.00;80.30;;;;;;4927003;28;20448;-81
2021/01/24 11:39:24;;;;;;;1.50;1.40;;;6.00;80.30;;;;;;4941944;28;20035;-81
2021/01/24 11:41:50;;;;;;;2.03;1.60;;;6.00;80.30;;;;;;4959396;28;20035;-85
2021/01/24 11:44:16;;;;;;;1.50;1.40;;;6.00;80.30;;;;;;4942028;28;20109;-79
2021/01/24 11:46:42;;;;;;;2.45;1.83;;;6.00;80.30;;;;;;4957255;28;20034;-78
2021/01/24 11:49:08;;;;;;;2.03;1.80;;;6.00;80.30;;;;;;4949804;28;20031;-79
2021/01/24 11:51:35;;;;;;;2.03;1.80;;;6.00;80.30;;;;;;4952724;28;20054;-78
2021/01/24 11:54:00;;;;;;;2.08;1.40;;;6.10;80.40;;;;;;4941948;28;20027;-78
2021/01/24 11:56:26;;;;;;;2.13;1.60;;;6.10;80.40;;;;;;4932551;28;20043;-78
2021/01/24 11:58:52;;;;;;;1.67;1.58;;;6.10;80.40;;;;;;4955205;28;20027;-78
2021/01/24 12:01:18;;;;;;;1.92;1.60;;;6.10;80.40;;;;;;4926086;28;20129;-77
2021/01/24 12:03:43;;;;;;;1.50;1.40;;;6.10;80.40;;;;;;4941459;28;20031;-77
2021/01/24 12:06:09;;;;;;;1.45;1.35;;;6.10;80.40;;;;;;4957453;28;20041;-79
2021/01/24 12:08:35;;;;;;;1.77;1.58;;;6.10;80.40;;;;;;4941109;28;20031;-78
2021/01/24 12:11:01;;;;;;;2.58;1.75;;;6.10;80.40;;;;;;4973166;28;20082;-77
2021/01/24 12:13:26;;;;;;;1.88;1.63;;;6.20;80.50;;;;;;4952296;28;20353;-78
2021/01/24 12:15:52;;;;;;;1.42;1.33;;;6.20;80.50;;;;;;4940347;28;20042;-77
2021/01/24 12:18:18;;;;;;;1.92;1.50;;;6.20;80.50;;;;;;4938318;29;20039;-77
2021/01/24 12:20:44;;;;;;;1.63;1.40;;;6.20;80.50;;;;;;4954273;28;20039;-77
2021/01/24 12:23:10;;;;;;;1.38;1.27;;;6.20;80.50;;;;;;4935350;28;20118;-76
2021/01/24 12:25:36;;;;;;;1.75;1.65;;;6.20;80.50;;;;;;4951914;28;20446;-77
2021/01/24 12:28:02;;;;;;;1.95;1.48;;;6.30;81.20;;;;;;4950439;28;20381;-78
2021/01/24 12:30:28;;;;;;;1.60;1.50;;;6.30;80.50;;;;;;4941209;28;20138;-78
2021/01/24 12:32:53;;;;;;;2.55;1.75;;;6.30;80.50;;;;;;4940987;28;20110;-77
2021/01/24 12:35:19;;;;;;;1.70;1.45;;;6.30;80.50;;;;;;4935109;28;20046;-77
2021/01/24 12:37:45;;;;;;;1.60;1.50;;;6.30;80.50;;;;;;4928203;28;20053;-78
2021/01/24 12:40:11;;;;;;;2.67;1.80;;;6.40;80.60;;;;;;4941074;28;20039;-78
2021/01/24 12:42:37;;;;;;;1.60;1.50;;;6.40;80.60;;;;;;4940709;28;20027;-77
2021/01/24 12:45:04;;;;;;;1.55;1.45;;;6.40;80.60;;;;;;4937788;28;20038;-76
2021/01/24 12:47:30;;;;;;;2.03;1.60;;;6.50;80.70;;;;;;4937007;28;20484;-76
2021/01/24 12:49:55;;;;;;;2.15;1.40;;;6.50;80.60;;;;;;4940554;28;20038;-76
2021/01/24 12:52:21;;;;;;;2.60;1.70;;;6.50;80.60;;;;;;4938538;28;20027;-76
2021/01/24 12:54:47;;;;;;;1.55;1.45;;;6.50;80.60;;;;;;4949925;28;20035;-78
2021/01/24 12:57:13;;;;;;;2.00;1.70;;;6.60;80.70;;;;;;4951576;28;20185;-76
2021/01/24 12:59:41;;;;;;;2.17;1.98;;;6.60;80.70;;;;;;4928826;29;20062;-77
2021/01/24 13:02:08;;;;;;;2.47;1.83;;;6.60;80.70;;;;;;4966781;28;20027;-76